Time;durP1;ratioP1;P1;durP2;ratioP2;P2;SDS_P1;SDS_P2;PMS_P1;PMS_P2;Temp;Humidity;BMP_temperature;BMP_pressure;BME280_temperature;BME280_humidity;BME280_pressure;Samples;Min_cycle;Max_cycle;Signal;HPM_P1;HPM_P2
2022/06/06 00:01:14;;;;;;;3.30;2.70;;;17.40;99.90;;;;;;5032056;28;20022;-45
2022/06/06 00:03:41;;;;;;;3.08;2.83;;;17.30;99.90;;;;;;5032011;28;20083;-47
2022/06/06 00:06:11;;;;;;;4.55;2.80;;;17.30;99.90;;;;;;5030695;28;20041;-51
2022/06/06 00:08:38;;;;;;;9.15;3.22;;;17.30;99.90;;;;;;5031506;28;20108;-50
2022/06/06 00:11:04;;;;;;;5.22;3.35;;;17.20;99.90;;;;;;5030196;28;20146;-45
2022/06/06 00:13:31;;;;;;;5.35;2.92;;;17.20;99.90;;;;;;5031703;28;20030;-46
2022/06/06 00:15:57;;;;;;;2.92;2.67;;;17.10;99.90;;;;;;5031855;28;20055;-47
2022/06/06 00:18:23;;;;;;;3.17;2.97;;;17.10;99.90;;;;;;5031403;28;20025;-51
2022/06/06 00:20:48;;;;;;;3.28;2.97;;;17.10;99.90;;;;;;5031668;28;20500;-48
2022/06/06 00:23:14;;;;;;;5.75;3.40;;;17.10;99.90;;;;;;5031805;28;20037;-49
2022/06/06 00:25:39;;;;;;;5.47;3.65;;;17.00;99.90;;;;;;5031613;28;20037;-49
2022/06/06 00:28:05;;;;;;;4.25;3.28;;;17.00;99.90;;;;;;5031363;28;20049;-46
2022/06/06 00:30:30;;;;;;;3.58;3.28;;;17.00;99.90;;;;;;5031596;28;20025;-49
2022/06/06 00:35:42;;;;;;;4.57;3.58;;;17.00;99.90;;;;;;5031948;28;20546;-46
2022/06/06 00:38:07;;;;;;;9.02;3.38;;;17.10;99.90;;;;;;5031311;28;20075;-47
2022/06/06 00:40:33;;;;;;;5.72;3.75;;;17.10;99.90;;;;;;5031735;28;20481;-48
2022/06/06 00:42:59;;;;;;;4.13;3.83;;;17.10;99.90;;;;;;5031619;28;20619;-49
2022/06/06 00:45:29;;;;;;;9.85;3.50;;;17.00;99.90;;;;;;5031829;28;20028;-48
2022/06/06 00:48:02;;;;;;;4.32;3.92;;;17.20;99.90;;;;;;5029786;28;20143;-48
2022/06/06 00:50:38;;;;;;;5.95;4.20;;;17.10;99.90;;;;;;5031775;28;20018;-45
2022/06/06 00:53:05;;;;;;;4.15;3.83;;;17.00;99.90;;;;;;5031321;28;20120;-47
2022/06/06 00:55:36;;;;;;;5.95;4.57;;;17.00;99.90;;;;;;5031434;28;20437;-51
2022/06/06 00:58:20;;;;;;;6.70;4.18;;;17.00;99.90;;;;;;5031018;28;20037;-46
2022/06/06 01:00:47;;;;;;;6.25;4.25;;;16.90;99.90;;;;;;5046781;28;20048;-47
2022/06/06 01:03:17;;;;;;;7.03;4.55;;;16.40;99.90;;;;;;5031112;28;20543;-50
2022/06/06 01:05:45;;;;;;;6.38;5.20;;;16.80;99.90;;;;;;5031348;28;20065;-48
2022/06/06 01:08:11;;;;;;;5.40;4.90;;;16.70;99.90;;;;;;5031134;28;20493;-46
2022/06/06 01:10:37;;;;;;;5.15;4.75;;;16.80;99.90;;;;;;5030690;28;20045;-48
2022/06/06 01:13:07;;;;;;;6.88;5.32;;;16.80;99.90;;;;;;5032617;28;20026;-47
2022/06/06 01:15:59;;;;;;;6.28;5.50;;;16.80;99.90;;;;;;5035106;28;20374;-46
2022/06/06 01:18:34;;;;;;;5.60;5.00;;;16.70;99.90;;;;;;5034685;28;20013;-45
2022/06/06 01:21:44;;;;;;;11.07;5.18;;;16.90;99.90;;;;;;5035098;28;20030;-48
2022/06/06 01:24:42;;;;;;;5.50;5.00;;;16.80;99.90;;;;;;5032461;28;20576;-50
2022/06/06 01:27:08;;;;;;;6.35;5.15;;;16.80;99.90;;;;;;5033260;28;20479;-46
2022/06/06 01:29:39;;;;;;;5.65;5.03;;;16.80;99.90;;;;;;5035006;28;20048;-49
2022/06/06 01:32:10;;;;;;;10.27;6.22;;;16.80;99.90;;;;;;5033635;28;20028;-45
2022/06/06 01:34:39;;;;;;;5.80;5.15;;;16.80;99.90;;;;;;5034890;28;20034;-45
2022/06/06 01:37:24;;;;;;;8.80;5.45;;;16.80;99.90;;;;;;5033051;28;20028;-46
2022/06/06 01:39:49;;;;;;;7.80;5.88;;;16.80;99.90;;;;;;5034790;28;20044;-46
2022/06/06 01:42:24;;;;;;;12.73;5.70;;;16.70;99.90;;;;;;5034769;28;20022;-49
2022/06/06 01:45:08;;;;;;;9.17;6.33;;;16.80;99.90;;;;;;5034926;28;20022;-46
2022/06/06 01:47:39;;;;;;;11.82;6.30;;;16.90;99.90;;;;;;5034326;28;20260;-46
2022/06/06 01:50:06;;;;;;;7.05;6.32;;;16.80;99.90;;;;;;5033285;28;20030;-45
2022/06/06 01:52:59;;;;;;;16.63;6.75;;;16.90;99.90;;;;;;5034488;28;20523;-46
2022/06/06 01:55:27;;;;;;;9.48;6.88;;;16.90;99.90;;;;;;5034515;28;20075;-45
2022/06/06 01:57:57;;;;;;;8.23;6.57;;;16.90;99.90;;;;;;5032726;28;20029;-45
2022/06/06 02:00:23;;;;;;;13.45;6.70;;;16.90;99.90;;;;;;5034297;28;20097;-45
2022/06/06 02:02:49;;;;;;;10.88;7.00;;;16.90;99.90;;;;;;5055966;22;20053;-45
2022/06/06 02:05:15;;;;;;;13.65;7.50;;;16.90;99.90;;;;;;5054251;28;20511;-47
2022/06/06 02:07:43;;;;;;;9.98;6.95;;;16.90;99.90;;;;;;5054329;28;20162;-49
2022/06/06 02:10:11;;;;;;;11.27;7.03;;;16.80;99.90;;;;;;5054445;28;20025;-49
2022/06/06 02:12:41;;;;;;;8.35;6.43;;;16.80;99.90;;;;;;5053894;28;20730;-48
2022/06/06 02:15:09;;;;;;;11.05;7.35;;;16.80;99.90;;;;;;5053042;28;20032;-47
2022/06/06 02:17:36;;;;;;;8.93;6.75;;;16.80;99.90;;;;;;5053912;28;20029;-47
2022/06/06 02:20:04;;;;;;;8.88;6.50;;;16.70;99.90;;;;;;5054358;28;20550;-46
2022/06/06 02:22:30;;;;;;;10.30;7.18;;;16.70;99.90;;;;;;5054341;28;20021;-45
2022/06/06 02:24:56;;;;;;;8.70;7.10;;;16.70;99.90;;;;;;5051416;28;20111;-47
2022/06/06 02:27:21;;;;;;;9.23;8.30;;;16.70;99.90;;;;;;5054046;28;20460;-46
2022/06/06 02:29:47;;;;;;;11.13;6.80;;;16.60;99.90;;;;;;5054199;28;20045;-47
2022/06/06 02:32:13;;;;;;;12.55;7.80;;;16.50;99.90;;;;;;5054178;28;20029;-45
2022/06/06 02:34:38;;;;;;;8.52;6.28;;;16.50;99.90;;;;;;5054058;28;20028;-47
2022/06/06 02:37:05;;;;;;;11.95;7.65;;;16.40;99.90;;;;;;5053958;28;20024;-45
2022/06/06 02:39:30;;;;;;;9.65;7.53;;;16.40;99.90;;;;;;5053772;28;20072;-45
2022/06/06 02:41:56;;;;;;;12.60;8.98;;;16.40;99.90;;;;;;5054705;28;20037;-48
2022/06/06 02:44:22;;;;;;;13.77;7.68;;;16.40;99.90;;;;;;5054115;28;20094;-46
2022/06/06 02:46:49;;;;;;;9.25;8.35;;;16.30;99.90;;;;;;5053700;28;20552;-47
2022/06/06 02:49:15;;;;;;;9.07;7.53;;;16.30;99.90;;;;;;5054048;28;20036;-44
2022/06/06 02:51:40;;;;;;;9.05;7.80;;;16.30;99.90;;;;;;5053758;28;20381;-46
2022/06/06 02:54:06;;;;;;;14.27;8.15;;;16.20;99.90;;;;;;5053725;28;20029;-47
2022/06/06 02:56:32;;;;;;;10.77;8.18;;;16.30;99.90;;;;;;5053804;28;20021;-46
2022/06/06 02:59:03;;;;;;;10.15;8.90;;;16.30;99.90;;;;;;5054019;28;20021;-45
2022/06/06 03:01:29;;;;;;;10.57;9.25;;;16.30;99.90;;;;;;5053903;28;20029;-45
2022/06/06 03:03:54;;;;;;;8.90;8.10;;;16.30;99.90;;;;;;5053620;28;20033;-48
2022/06/06 03:06:28;;;;;;;11.43;9.30;;;16.30;99.90;;;;;;5053818;28;20137;-48
2022/06/06 03:09:00;;;;;;;14.48;8.48;;;16.20;99.90;;;;;;5053537;28;20037;-46
2022/06/06 03:12:00;;;;;;;13.88;8.95;;;16.20;99.90;;;;;;5053381;28;20076;-45
2022/06/06 03:14:58;;;;;;;10.20;8.85;;;16.10;99.90;;;;;;5053417;28;20031;-45
2022/06/06 03:20:51;;;;;;;11.27;9.80;;;16.10;99.90;;;;;;5053609;28;20032;-47
2022/06/06 03:23:35;;;;;;;11.90;10.23;;;16.10;99.90;;;;;;5051138;28;20033;-46
2022/06/06 03:26:37;;;;;;;16.77;10.25;;;16.00;99.90;;;;;;5053613;28;20060;-45
2022/06/06 03:29:16;;;;;;;11.30;9.75;;;16.00;99.90;;;;;;5053426;28;20444;-46
2022/06/06 03:32:05;;;;;;;18.38;10.68;;;16.00;99.90;;;;;;5052931;28;20021;-45
2022/06/06 03:34:42;;;;;;;17.20;10.43;;;16.00;99.90;;;;;;5052695;28;20025;-49
2022/06/06 03:37:22;;;;;;;13.73;10.10;;;16.10;99.90;;;;;;5051952;28;20035;-46
2022/06/06 03:40:13;;;;;;;13.00;10.80;;;16.00;99.90;;;;;;5052627;28;20021;-44
2022/06/06 03:43:00;;;;;;;14.02;11.05;;;16.00;99.90;;;;;;5052662;28;20021;-51
2022/06/06 03:45:38;;;;;;;15.48;10.85;;;16.00;99.90;;;;;;5052648;28;20025;-46
2022/06/06 03:48:50;;;;;;;18.58;11.75;;;16.00;99.90;;;;;;5052374;28;20043;-46
2022/06/06 03:51:29;;;;;;;21.75;10.98;;;16.00;99.90;;;;;;5052568;28;20036;-46
2022/06/06 03:54:29;;;;;;;20.10;11.23;;;16.00;99.90;;;;;;5052642;28;20389;-45
2022/06/06 03:57:13;;;;;;;14.82;10.80;;;16.00;99.90;;;;;;5052974;28;20065;-49
2022/06/06 03:59:40;;;;;;;17.33;10.98;;;16.10;99.90;;;;;;5052746;28;20424;-47
2022/06/06 04:02:07;;;;;;;11.82;9.93;;;16.20;99.90;;;;;;5052230;28;20127;-47
2022/06/06 04:04:33;;;;;;;13.70;11.02;;;16.30;99.90;;;;;;5052388;28;20025;-45
2022/06/06 04:07:01;;;;;;;10.73;9.57;;;16.30;99.90;;;;;;5052195;28;20028;-48
2022/06/06 04:09:32;;;;;;;13.75;10.18;;;16.40;99.90;;;;;;5052254;28;20029;-46
2022/06/06 04:12:27;;;;;;;18.52;9.85;;;16.50;99.90;;;;;;5052757;28;20052;-46
2022/06/06 04:15:08;;;;;;;13.68;10.45;;;16.60;99.90;;;;;;5049689;28;20042;-47
2022/06/06 04:17:43;;;;;;;13.85;10.10;;;16.70;99.90;;;;;;5051796;28;20424;-46
2022/06/06 04:20:12;;;;;;;12.38;10.45;;;16.70;99.90;;;;;;5052139;28;20075;-45
2022/06/06 04:22:58;;;;;;;15.38;9.77;;;16.80;99.90;;;;;;5051909;28;20271;-49
2022/06/06 04:25:30;;;;;;;12.40;10.98;;;16.80;99.90;;;;;;5051798;28;20052;-49
2022/06/06 04:28:34;;;;;;;10.90;8.98;;;16.90;99.90;;;;;;5051760;28;20029;-51
2022/06/06 04:31:17;;;;;;;13.30;9.13;;;16.90;99.90;;;;;;5047666;28;20037;-49
2022/06/06 04:34:11;;;;;;;12.35;9.05;;;16.90;99.90;;;;;;5051763;28;20108;-47
2022/06/06 04:36:55;;;;;;;15.55;9.77;;;16.90;99.90;;;;;;5051785;28;20036;-44
2022/06/06 04:39:33;;;;;;;12.00;8.98;;;16.90;99.90;;;;;;5052075;28;20400;-45
2022/06/06 04:42:13;;;;;;;12.63;9.32;;;17.00;99.90;;;;;;5052022;28;20025;-45
2022/06/06 04:44:57;;;;;;;11.90;8.85;;;17.00;99.90;;;;;;5051717;28;20021;-47
2022/06/06 04:47:34;;;;;;;11.80;9.05;;;17.00;99.90;;;;;;5052071;28;20078;-45
2022/06/06 04:50:04;;;;;;;10.20;9.02;;;17.00;99.90;;;;;;5056026;28;20515;-46
2022/06/06 04:52:31;;;;;;;12.10;8.10;;;17.10;99.90;;;;;;5055849;28;20450;-47
2022/06/06 04:54:57;;;;;;;9.32;8.35;;;17.30;99.90;;;;;;5055659;28;20033;-48
2022/06/06 04:57:24;;;;;;;9.75;8.35;;;17.50;99.90;;;;;;5055742;28;20029;-49
2022/06/06 04:59:51;;;;;;;9.75;8.70;;;17.70;99.90;;;;;;5055944;28;20071;-46
2022/06/06 05:02:19;;;;;;;13.95;7.65;;;17.90;99.90;;;;;;5055442;28;20029;-48
2022/06/06 05:04:44;;;;;;;14.68;8.52;;;18.00;99.90;;;;;;5056014;28;20124;-45
2022/06/06 05:07:43;;;;;;;10.95;8.55;;;18.00;99.90;;;;;;5055452;28;20551;-47
2022/06/06 05:10:27;;;;;;;12.85;7.88;;;18.10;99.90;;;;;;5056299;28;20021;-45
2022/06/06 05:13:12;;;;;;;12.00;8.45;;;18.00;99.90;;;;;;5055774;28;20451;-47
2022/06/06 05:16:08;;;;;;;13.25;8.57;;;18.20;99.90;;;;;;5055477;28;20479;-46
2022/06/06 05:18:51;;;;;;;10.15;7.85;;;18.70;99.90;;;;;;5055362;28;20528;-48
2022/06/06 05:21:59;;;;;;;9.45;8.27;;;19.30;99.90;;;;;;5055643;28;20028;-47
2022/06/06 05:24:49;;;;;;;9.73;7.68;;;19.40;99.90;;;;;;5055179;28;20450;-49
2022/06/06 05:27:15;;;;;;;7.13;5.88;;;19.70;99.90;;;;;;5057079;28;20349;-50
2022/06/06 05:30:12;;;;;;;13.13;7.88;;;20.10;99.90;;;;;;5056277;28;20112;-47
2022/06/06 05:32:56;;;;;;;8.05;6.78;;;20.40;99.90;;;;;;5056579;28;20373;-47
2022/06/06 05:35:36;;;;;;;7.28;6.22;;;20.90;99.90;;;;;;5056757;28;20115;-48
2022/06/06 05:38:39;;;;;;;7.60;6.30;;;21.70;99.90;;;;;;5056073;28;20027;-48
2022/06/06 05:41:22;;;;;;;8.88;6.20;;;22.60;99.90;;;;;;5056354;28;20025;-49
2022/06/06 05:44:08;;;;;;;6.28;5.45;;;23.20;99.90;;;;;;5056506;28;20033;-50
2022/06/06 05:46:33;;;;;;;8.98;5.68;;;23.50;99.90;;;;;;5056065;28;20024;-46
2022/06/06 05:49:22;;;;;;;6.65;4.63;;;23.80;99.90;;;;;;5056598;28;20029;-47
2022/06/06 05:52:06;;;;;;;8.48;5.10;;;24.60;99.90;;;;;;5055846;28;20051;-46
2022/06/06 05:55:16;;;;;;;5.75;4.72;;;25.50;99.70;;;;;;5055994;28;20021;-45
2022/06/06 05:58:00;;;;;;;6.13;4.78;;;25.40;99.30;;;;;;5036566;28;20124;-46
2022/06/06 06:01:13;;;;;;;5.38;4.50;;;25.10;99.60;;;;;;5056267;28;20029;-46
2022/06/06 06:03:52;;;;;;;7.30;4.85;;;24.50;99.90;;;;;;5053595;28;20048;-46
2022/06/06 06:06:37;;;;;;;5.78;5.15;;;23.80;99.90;;;;;;5056642;28;20025;-53
2022/06/06 06:09:13;;;;;;;8.88;5.60;;;23.30;99.90;;;;;;5055199;28;20078;-50
2022/06/06 06:11:48;;;;;;;6.43;5.32;;;22.70;99.90;;;;;;5054799;28;20032;-49
2022/06/06 06:14:47;;;;;;;6.93;6.00;;;22.20;99.90;;;;;;5055152;28;20029;-49
2022/06/06 06:17:17;;;;;;;5.70;5.20;;;22.10;99.90;;;;;;5054285;28;20053;-45
2022/06/06 06:19:50;;;;;;;10.32;5.57;;;22.00;99.90;;;;;;5055147;28;20056;-48
2022/06/06 06:22:17;;;;;;;7.68;4.93;;;22.10;99.90;;;;;;5055030;28;20055;-48
2022/06/06 06:24:42;;;;;;;9.68;6.20;;;22.50;99.90;;;;;;5053756;28;20029;-46
2022/06/06 06:27:12;;;;;;;6.78;5.53;;;22.70;99.90;;;;;;5054568;28;20437;-45
2022/06/06 06:29:37;;;;;;;5.60;5.07;;;22.60;99.90;;;;;;5054846;28;20063;-46
2022/06/06 06:32:25;;;;;;;5.55;4.75;;;22.40;99.90;;;;;;5054917;28;20033;-45
2022/06/06 06:35:25;;;;;;;5.70;5.20;;;22.10;99.90;;;;;;5054885;28;20021;-46
2022/06/06 06:38:09;;;;;;;8.52;5.40;;;21.90;99.90;;;;;;5053115;28;20078;-48
2022/06/06 06:40:53;;;;;;;10.32;5.78;;;21.80;99.90;;;;;;5054821;28;20028;-45
2022/06/06 06:43:42;;;;;;;7.97;5.05;;;21.90;99.90;;;;;;5054496;28;20374;-50
2022/06/06 06:46:18;;;;;;;6.80;4.85;;;22.90;99.90;;;;;;5054579;28;20033;-47
2022/06/06 06:48:45;;;;;;;5.75;4.70;;;24.00;99.90;;;;;;5054244;28;20114;-47
2022/06/06 06:51:37;;;;;;;17.42;4.68;;;24.80;99.90;;;;;;5054326;28;20477;-46
2022/06/06 06:54:23;;;;;;;6.63;4.65;;;25.40;99.40;;;;;;5053980;28;20032;-51
2022/06/06 06:57:11;;;;;;;7.03;4.70;;;25.80;98.90;;;;;;5054411;28;20039;-51
2022/06/06 06:59:58;;;;;;;6.55;4.88;;;25.80;98.40;;;;;;5053388;28;20040;-47
2022/06/06 07:08:40;;;;;;;7.50;4.90;;;25.00;98.30;;;;;;5053738;28;20032;-46
2022/06/06 07:11:05;;;;;;;8.57;3.70;;;24.80;98.70;;;;;;5053045;28;20021;-46
2022/06/06 07:14:03;;;;;;;4.35;3.88;;;24.50;98.60;;;;;;5053529;28;20029;-47
2022/06/06 07:16:39;;;;;;;12.50;5.65;;;24.00;99.20;;;;;;5044024;28;20044;-46
2022/06/06 07:19:13;;;;;;;8.68;4.78;;;23.50;99.90;;;;;;5053409;28;20025;-45
2022/06/06 07:21:41;;;;;;;7.15;5.00;;;23.00;99.90;;;;;;5053464;28;20017;-46
2022/06/06 07:24:15;;;;;;;13.15;5.32;;;22.60;99.90;;;;;;5053019;28;20112;-50
2022/06/06 07:26:42;;;;;;;5.60;5.07;;;22.30;99.90;;;;;;5053138;28;20025;-45
2022/06/06 07:29:11;;;;;;;9.18;5.10;;;22.00;99.90;;;;;;5053098;28;20110;-46
2022/06/06 07:31:43;;;;;;;10.23;6.75;;;21.70;99.90;;;;;;5053441;28;20025;-46
2022/06/06 07:34:40;;;;;;;7.75;5.85;;;21.40;99.90;;;;;;5053139;28;20605;-44
2022/06/06 07:37:37;;;;;;;10.68;6.38;;;21.00;99.90;;;;;;5053053;28;20028;-45
2022/06/06 07:40:34;;;;;;;10.15;5.38;;;20.70;99.90;;;;;;5053734;28;20053;-49
2022/06/06 07:43:14;;;;;;;7.28;6.00;;;20.40;99.90;;;;;;5052788;28;20074;-44
2022/06/06 07:45:46;;;;;;;6.45;5.60;;;20.20;99.90;;;;;;5052841;28;20017;-48
2022/06/06 07:48:33;;;;;;;9.13;5.47;;;20.00;99.90;;;;;;5052338;28;20112;-46
2022/06/06 07:51:15;;;;;;;5.22;4.70;;;20.00;99.90;;;;;;5052459;28;20027;-46
2022/06/06 07:54:10;;;;;;;5.10;4.60;;;19.90;99.90;;;;;;5052329;28;20079;-45
2022/06/06 07:56:51;;;;;;;6.97;4.60;;;19.90;99.90;;;;;;5052516;28;20028;-48
2022/06/06 07:59:38;;;;;;;5.35;4.85;;;19.80;99.90;;;;;;5052587;28;20013;-46
2022/06/06 08:02:24;;;;;;;7.95;6.05;;;19.70;99.90;;;;;;5052435;28;20114;-46
2022/06/06 08:05:23;;;;;;;12.48;6.07;;;19.50;99.90;;;;;;5074065;22;20084;-45
2022/06/06 08:08:09;;;;;;;20.27;7.60;;;19.30;99.90;;;;;;5051006;28;20391;-45
2022/06/06 08:10:45;;;;;;;19.30;6.07;;;19.00;99.90;;;;;;5050648;28;20029;-49
2022/06/06 08:13:38;;;;;;;16.42;6.20;;;18.40;99.90;;;;;;5051611;28;20473;-48
2022/06/06 08:16:24;;;;;;;9.65;7.00;;;18.00;99.90;;;;;;5051816;28;20068;-47
2022/06/06 08:19:23;;;;;;;13.60;6.53;;;17.70;99.90;;;;;;5051496;28;20029;-46
2022/06/06 08:21:49;;;;;;;9.05;5.60;;;17.50;99.90;;;;;;5051623;28;20051;-45
2022/06/06 08:24:22;;;;;;;5.80;5.28;;;17.30;99.90;;;;;;5051606;28;20397;-46
2022/06/06 08:26:48;;;;;;;9.50;6.63;;;17.20;99.90;;;;;;5051390;28;20021;-50
2022/06/06 08:29:16;;;;;;;10.50;7.47;;;17.10;99.90;;;;;;5051476;28;20480;-47
2022/06/06 08:31:42;;;;;;;11.40;7.13;;;17.10;99.90;;;;;;5051638;28;20033;-47
2022/06/06 08:34:08;;;;;;;9.90;8.43;;;17.10;99.90;;;;;;5051419;28;20056;-51
2022/06/06 08:36:49;;;;;;;10.63;9.00;;;17.20;99.90;;;;;;5051387;28;20026;-45
2022/06/06 08:39:26;;;;;;;9.18;8.38;;;17.30;99.90;;;;;;5050153;28;20021;-49
2022/06/06 08:42:23;;;;;;;10.63;7.20;;;17.30;99.90;;;;;;5051668;28;20108;-51
2022/06/06 08:45:07;;;;;;;11.57;7.18;;;17.40;99.90;;;;;;5051442;28;20426;-46
2022/06/06 08:47:56;;;;;;;8.82;7.90;;;17.40;99.90;;;;;;5051028;28;20070;-44
2022/06/06 08:51:00;;;;;;;9.63;7.00;;;17.40;99.90;;;;;;5051466;28;20516;-50
2022/06/06 08:54:05;;;;;;;6.90;6.30;;;17.50;99.90;;;;;;5051325;28;20142;-47
2022/06/06 08:56:39;;;;;;;6.38;5.80;;;17.60;99.90;;;;;;5028502;28;20515;-44
2022/06/06 08:59:42;;;;;;;6.63;4.72;;;17.70;99.90;;;;;;5051284;28;20099;-44
2022/06/06 09:02:34;;;;;;;6.63;5.43;;;18.00;99.90;;;;;;5051429;28;20021;-44
2022/06/06 09:05:37;;;;;;;7.68;5.65;;;18.00;99.90;;;;;;5051463;28;20033;-43
2022/06/06 09:08:43;;;;;;;8.23;5.28;;;18.00;99.90;;;;;;5051242;28;20457;-44
2022/06/06 09:11:27;;;;;;;6.22;4.82;;;18.30;99.90;;;;;;5049664;28;20036;-45
2022/06/06 09:14:19;;;;;;;5.13;3.38;;;18.70;99.90;;;;;;5051071;28;20047;-45
2022/06/06 09:17:12;;;;;;;3.63;2.72;;;19.50;99.90;;;;;;5050915;28;20091;-45
2022/06/06 09:19:55;;;;;;;3.45;2.60;;;20.40;99.90;;;;;;5049992;28;20044;-44
2022/06/06 09:22:21;;;;;;;3.05;2.85;;;20.90;99.90;;;;;;5051300;28;20032;-50
2022/06/06 09:25:04;;;;;;;3.70;2.25;;;21.20;99.90;;;;;;5051147;28;20028;-46
2022/06/06 09:28:12;;;;;;;2.75;2.00;;;21.50;99.90;;;;;;5050944;28;20111;-48
2022/06/06 09:30:59;;;;;;;1.75;1.63;;;21.50;99.90;;;;;;5049794;28;20396;-49
2022/06/06 09:33:43;;;;;;;2.22;1.95;;;21.20;99.90;;;;;;5051727;28;20117;-50
2022/06/06 09:36:26;;;;;;;3.55;2.30;;;20.70;99.90;;;;;;5054934;28;20029;-51
2022/06/06 09:39:09;;;;;;;3.05;2.72;;;20.30;99.90;;;;;;5054536;28;20384;-46
2022/06/06 09:41:45;;;;;;;3.90;2.50;;;20.10;99.90;;;;;;5054886;28;20544;-49
2022/06/06 09:44:32;;;;;;;5.32;2.88;;;19.90;99.90;;;;;;5053814;28;20488;-47
2022/06/06 09:47:28;;;;;;;2.72;2.53;;;19.70;99.90;;;;;;5053669;28;20055;-49
2022/06/06 09:50:06;;;;;;;3.40;3.10;;;19.60;99.90;;;;;;5055107;28;20032;-48
2022/06/06 09:52:56;;;;;;;4.55;4.10;;;19.50;99.90;;;;;;5054233;28;20103;-46
2022/06/06 09:59:02;;;;;;;3.28;2.88;;;19.40;99.90;;;;;;5054158;28;20027;-45
2022/06/06 10:01:54;;;;;;;2.58;2.33;;;19.60;99.90;;;;;;5052902;28;20055;-47
2022/06/06 10:05:05;;;;;;;2.55;2.35;;;19.70;99.90;;;;;;5053945;28;20036;-43
2022/06/06 10:08:07;;;;;;;2.20;2.10;;;20.00;99.90;;;;;;5053908;28;20029;-46
2022/06/06 10:10:53;;;;;;;2.60;1.60;;;20.50;99.90;;;;;;5052357;28;20036;-45
2022/06/06 10:13:19;;;;;;;1.80;1.70;;;20.80;99.90;;;;;;5053861;28;20021;-45
2022/06/06 10:15:50;;;;;;;2.00;1.90;;;21.00;99.90;;;;;;5052901;28;20044;-46
2022/06/06 10:18:35;;;;;;;1.90;1.60;;;21.10;99.90;;;;;;5053975;28;20104;-45
2022/06/06 10:21:27;;;;;;;2.72;1.60;;;21.20;99.90;;;;;;5053953;28;20027;-43
2022/06/06 10:24:04;;;;;;;2.00;1.80;;;21.20;99.90;;;;;;5054360;28;20021;-45
2022/06/06 10:26:39;;;;;;;2.00;1.80;;;21.20;99.90;;;;;;5054200;28;20056;-43
2022/06/06 10:30:10;;;;;;;2.63;2.42;;;21.40;99.90;;;;;;5053611;28;20025;-46
2022/06/06 10:32:50;;;;;;;1.60;1.50;;;21.70;99.90;;;;;;5053596;28;20041;-46
2022/06/06 10:35:21;;;;;;;3.05;1.60;;;21.80;99.90;;;;;;5052188;28;20029;-46
2022/06/06 10:37:53;;;;;;;2.25;1.90;;;22.00;99.90;;;;;;5053374;28;20020;-44
2022/06/06 10:40:46;;;;;;;2.88;1.77;;;22.10;99.90;;;;;;5053737;28;20029;-44
2022/06/06 10:43:47;;;;;;;3.90;1.35;;;22.00;99.10;;;;;;5053893;28;20465;-46
2022/06/06 10:46:19;;;;;;;2.58;1.42;;;22.00;99.30;;;;;;5052458;28;20029;-44
2022/06/06 10:49:16;;;;;;;2.83;1.77;;;22.00;99.40;;;;;;5053090;28;20052;-46
2022/06/06 10:52:07;;;;;;;1.40;1.35;;;22.00;99.20;;;;;;5053416;28;20014;-49
2022/06/06 10:55:03;;;;;;;3.15;2.72;;;22.00;99.70;;;;;;5053274;28;20121;-49
2022/06/06 10:57:55;;;;;;;3.70;2.33;;;22.10;99.20;;;;;;5053098;28;20025;-47
2022/06/06 11:00:42;;;;;;;1.80;1.70;;;22.30;98.20;;;;;;5053029;28;20075;-47
2022/06/06 11:03:49;;;;;;;5.25;1.40;;;22.40;97.60;;;;;;5053020;28;20036;-44
2022/06/06 11:06:54;;;;;;;1.70;1.60;;;22.30;97.70;;;;;;5053220;28;20024;-47
2022/06/06 11:09:25;;;;;;;1.52;1.40;;;22.10;97.50;;;;;;5053061;28;20027;-45
2022/06/06 11:12:09;;;;;;;2.08;1.70;;;21.90;97.50;;;;;;5052606;28;20435;-50
2022/06/06 11:14:38;;;;;;;2.15;1.40;;;21.70;98.10;;;;;;5053181;28;20075;-52
2022/06/06 11:17:22;;;;;;;1.67;1.50;;;21.70;98.30;;;;;;5052409;28;20025;-46
2022/06/06 11:20:20;;;;;;;6.35;1.92;;;21.60;98.80;;;;;;5053076;28;20434;-50
2022/06/06 11:23:19;;;;;;;2.15;2.05;;;21.50;99.50;;;;;;5052869;28;20048;-50
2022/06/06 11:26:00;;;;;;;2.55;1.67;;;21.40;99.00;;;;;;5053105;28;20381;-44
2022/06/06 11:28:40;;;;;;;1.65;1.55;;;21.40;99.10;;;;;;5051179;28;20374;-47
2022/06/06 11:31:27;;;;;;;5.57;1.77;;;21.40;99.00;;;;;;5051474;28;20581;-50
2022/06/06 11:34:04;;;;;;;1.50;1.40;;;21.30;99.20;;;;;;5052540;28;20032;-46
2022/06/06 11:36:48;;;;;;;1.40;1.30;;;21.30;98.30;;;;;;5051602;28;20442;-47
2022/06/06 11:39:25;;;;;;;4.72;2.20;;;21.40;99.70;;;;;;5052558;28;20021;-46
2022/06/06 11:42:13;;;;;;;1.80;1.70;;;21.70;98.50;;;;;;5052378;28;20070;-51
2022/06/06 11:45:16;;;;;;;1.58;1.42;;;22.00;98.20;;;;;;5052394;28;20116;-51
2022/06/06 11:48:19;;;;;;;2.38;1.90;;;22.20;96.90;;;;;;5051942;28;20043;-46
2022/06/06 11:51:25;;;;;;;1.40;1.30;;;22.10;95.80;;;;;;5052253;28;20032;-49
2022/06/06 11:54:25;;;;;;;1.83;1.50;;;21.90;96.90;;;;;;5052221;28;20060;-48
2022/06/06 11:57:04;;;;;;;4.30;1.58;;;21.90;97.00;;;;;;5051558;28;20499;-47
2022/06/06 11:59:55;;;;;;;1.50;1.40;;;21.90;96.40;;;;;;5052227;28;20021;-49
2022/06/06 12:02:26;;;;;;;2.33;1.70;;;22.10;95.70;;;;;;5052023;28;20427;-47
2022/06/06 12:04:54;;;;;;;4.10;1.30;;;22.10;96.40;;;;;;5050594;28;20094;-51
2022/06/06 12:08:02;;;;;;;1.27;1.20;;;22.10;95.50;;;;;;5051669;28;20028;-49
2022/06/06 12:10:38;;;;;;;3.30;1.60;;;22.10;94.50;;;;;;5051385;28;20037;-47
2022/06/06 12:13:12;;;;;;;31.23;23.80;;;22.10;95.50;;;;;;5051918;28;20029;-45
2022/06/06 12:16:08;;;;;;;7.53;4.47;;;22.20;95.90;;;;;;5051702;28;20120;-50
2022/06/06 12:18:46;;;;;;;2.80;2.03;;;22.40;95.00;;;;;;5051533;28;20053;-52
2022/06/06 12:21:37;;;;;;;2.17;1.45;;;22.40;95.40;;;;;;5052197;28;20105;-46
2022/06/06 12:24:17;;;;;;;1.88;1.50;;;22.40;95.90;;;;;;5051871;28;20507;-46
2022/06/06 12:27:04;;;;;;;3.22;1.40;;;22.50;96.50;;;;;;5052055;28;20032;-49
2022/06/06 12:29:51;;;;;;;1.80;1.60;;;22.60;95.90;;;;;;5050834;28;20025;-49
2022/06/06 12:32:51;;;;;;;2.45;1.83;;;22.70;95.10;;;;;;5051799;28;20029;-49
2022/06/06 12:35:21;;;;;;;2.45;1.70;;;23.00;95.10;;;;;;5051457;28;20032;-51
2022/06/06 12:38:11;;;;;;;1.38;1.27;;;23.00;93.90;;;;;;5051251;28;20028;-45
2022/06/06 12:41:15;;;;;;;2.78;1.70;;;22.90;94.30;;;;;;5051947;28;20582;-45
2022/06/06 12:43:59;;;;;;;1.85;1.48;;;22.80;94.10;;;;;;5050153;28;20071;-46
2022/06/06 12:46:24;;;;;;;2.95;1.73;;;22.80;94.70;;;;;;5051645;28;20025;-46
2022/06/06 12:49:08;;;;;;;3.47;1.50;;;22.90;95.30;;;;;;5051132;28;20027;-48
2022/06/06 12:51:56;;;;;;;1.55;1.48;;;22.90;94.50;;;;;;5050065;28;20049;-45
2022/06/06 12:54:30;;;;;;;1.73;1.60;;;23.00;94.30;;;;;;5051296;28;20029;-46
2022/06/06 12:56:57;;;;;;;1.95;1.55;;;23.00;94.70;;;;;;5051203;28;20025;-48
2022/06/06 12:59:29;;;;;;;2.78;1.48;;;23.00;94.10;;;;;;5051265;28;20022;-45
2022/06/06 13:02:08;;;;;;;3.10;1.80;;;22.90;94.70;;;;;;5050093;28;20028;-47
2022/06/06 13:05:11;;;;;;;2.78;1.63;;;22.90;94.70;;;;;;5051122;28;20171;-44
2022/06/06 13:08:06;;;;;;;1.60;1.50;;;22.90;94.50;;;;;;5051224;28;20056;-47
2022/06/06 13:11:02;;;;;;;2.50;1.45;;;23.10;95.10;;;;;;5053590;28;20094;-44
2022/06/06 13:13:34;;;;;;;3.42;1.48;;;23.20;94.10;;;;;;5055097;28;20100;-46
2022/06/06 13:16:27;;;;;;;1.50;1.40;;;23.10;93.90;;;;;;5055465;28;20441;-45
2022/06/06 13:19:10;;;;;;;2.33;2.10;;;23.00;94.60;;;;;;5054980;28;20096;-47
2022/06/06 13:22:01;;;;;;;3.08;2.33;;;23.00;94.80;;;;;;5055264;28;20066;-46
2022/06/06 13:25:21;;;;;;;5.25;1.90;;;23.00;94.70;;;;;;5055000;28;20047;-44
2022/06/06 13:27:57;;;;;;;1.60;1.50;;;23.10;94.30;;;;;;4992800;28;20099;-45
2022/06/06 13:30:36;;;;;;;1.10;1.00;;;23.30;94.00;;;;;;5046842;28;20510;-47
2022/06/06 13:33:33;;;;;;;3.50;1.30;;;23.50;93.80;;;;;;5054818;28;20104;-46
2022/06/06 13:36:01;;;;;;;2.13;1.23;;;23.70;93.90;;;;;;5055125;28;20245;-46
2022/06/06 13:38:49;;;;;;;6.13;1.83;;;23.90;93.60;;;;;;5054675;28;20062;-48
2022/06/06 13:41:45;;;;;;;3.40;1.33;;;23.80;93.20;;;;;;5054754;28;20013;-46
2022/06/06 13:44:13;;;;;;;2.15;1.13;;;23.70;93.00;;;;;;5054752;28;20109;-47
2022/06/06 13:46:57;;;;;;;5.80;1.35;;;23.60;94.00;;;;;;5054540;28;20108;-45
2022/06/06 13:49:41;;;;;;;1.40;1.30;;;23.70;92.60;;;;;;5054512;28;20025;-45
2022/06/06 13:52:45;;;;;;;2.42;1.23;;;23.70;93.50;;;;;;5054618;28;20546;-46
2022/06/06 13:55:33;;;;;;;1.67;1.40;;;23.80;93.60;;;;;;5054441;28;20025;-43
2022/06/06 13:58:22;;;;;;;2.95;1.58;;;23.80;92.60;;;;;;5052931;28;20028;-47
2022/06/06 14:01:27;;;;;;;1.05;1.05;;;23.80;92.70;;;;;;5016036;28;20087;-48
2022/06/06 14:04:30;;;;;;;6.40;1.50;;;23.90;93.60;;;;;;5077064;22;20041;-50
2022/06/06 14:07:42;;;;;;;6.82;1.08;;;24.00;92.70;;;;;;5053594;28;20025;-47
2022/06/06 14:10:11;;;;;;;1.40;1.30;;;24.10;92.30;;;;;;5051189;28;20441;-46